Data for 02/20/2018

Time Sea-Level Adjusted Pressure Absolute Pressure Temperature Relative Humidity Dew Point   
(mb) (inHg) (mb) (inHg) (C) (F) (%) (C) (F)
00:05 1014 29.94 843 24.89 -20.8 -5.5 70 -25 -13
00:10 1014 29.94 843 24.89 -20.8 -5.5 69 -25.2 -13.3
00:15 1014 29.94 843 24.89 -20.8 -5.5 68 -25.3 -13.5
00:20 1014 29.94 843 24.89 -20.9 -5.6 69 -25.3 -13.5
00:25 1014 29.94 843 24.89 -20.9 -5.5 69 -25.1 -13.2
00:30 1014 29.94 843 24.89 -20.9 -5.6 69 -25.2 -13.3
00:35 1014 29.94 843 24.89 -21 -5.7 70 -25.1 -13.2
00:40 1014 29.94 843 24.89 -21 -5.8 70 -25.2 -13.3
00:45 1014 29.94 843 24.89 -21.1 -6 70 -25.2 -13.3
00:50 1014 29.94 843 24.89 -21.2 -6.2 71 -25.2 -13.4
00:55 1014 29.94 843 24.89 -21.3 -6.4 72 -25.2 -13.3
01:00 1014 29.94 843 24.89 -21.7 -7 72 -25.5 -13.9
01:05 1014 29.94 843 24.89 -22 -7.5 72 -25.7 -14.3
01:10 1014 29.94 843 24.89 -22 -7.6 72 -25.8 -14.4
01:15 1014 29.94 843 24.89 -22 -7.5 72 -25.8 -14.4
01:20 1014 29.94 843 24.89 -21.9 -7.3 73 -25.5 -14
01:25 1014 29.94 843 24.89 -21.8 -7.2 74 -25.2 -13.4
01:30 1014 29.94 843 24.89 -21.5 -6.7 75 -24.9 -12.8
01:35 1014 29.94 843 24.89 -21.4 -6.6 75 -24.8 -12.7
01:40 1014 29.94 843 24.89 -21.5 -6.8 75 -24.8 -12.7
01:45 1014 29.94 843 24.89 -21.7 -7.1 76 -24.9 -12.9
01:50 1014 29.94 843 24.89 -21.9 -7.4 76 -25 -13.1
01:55 1014 29.94 844 24.92 -22.1 -7.8 76 -25.2 -13.4
02:00 1014 29.94 844 24.92 -22.1 -7.7 76 -25.1 -13.3
02:05 1014 29.94 844 24.92 -22 -7.7 75 -25.3 -13.5
02:10 1014 29.94 844 24.92 -22.1 -7.8 75 -25.5 -13.8
02:15 1014 29.94 844 24.92 -22.2 -8 74 -25.6 -14.2
02:20 1014 29.94 844 24.92 -22.2 -8 74 -25.7 -14.2
02:25 1014 29.94 844 24.92 -22.4 -8.3 74 -25.8 -14.5
02:30 1014 29.94 844 24.92 -22.7 -8.9 74 -26.1 -15
02:35 1014 29.94 844 24.92 -23 -9.4 75 -26.3 -15.3
02:40 1014 29.94 844 24.92 -22.9 -9.1 75 -26.1 -15.1
02:45 1014 29.94 844 24.92 -22.6 -8.6 74 -26.1 -14.9
02:50 1014 29.94 844 24.92 -22.3 -8.2 73 -26 -14.8
02:55 1014 29.94 844 24.92 -21.9 -7.3 71 -25.8 -14.4
03:00 1014 29.94 844 24.92 -21.8 -7.2 71 -25.7 -14.3
03:05 1014 29.94 844 24.92 -21.8 -7.3 70 -25.9 -14.5
03:10 1014 29.94 844 24.92 -22.1 -7.8 71 -26.1 -15
03:15 1015 29.97 844 24.92 -22.6 -8.7 73 -26.2 -15.2
03:20 1015 29.97 844 24.92 -22.8 -9.1 77 -25.9 -14.6
03:25 1015 29.97 844 24.92 -22.5 -8.6 76 -25.8 -14.4
03:30 1015 29.97 844 24.92 -22.5 -8.4 75 -25.7 -14.2
03:35 1015 29.97 844 24.92 -22.2 -7.9 79 -24.8 -12.7
03:40 1015 29.97 844 24.92 -22.1 -7.7 79 -24.8 -12.6
03:45 1015 29.97 844 24.92 -21.7 -7.1 75 -25 -13
03:50 1015 29.97 844 24.92 -22 -7.5 74 -25.5 -13.8
03:55 1015 29.97 844 24.92 -22.3 -8.2 75 -25.6 -14.1
04:00 1015 29.97 844 24.92 -22.3 -8.1 74 -25.8 -14.5
04:05 1015 29.97 844 24.92 -22.6 -8.7 74 -26.1 -14.9
04:10 1015 29.97 844 24.92 -22.7 -8.9 74 -26.1 -14.9
04:15 1015 29.97 844 24.92 -22.7 -8.9 77 -25.7 -14.3
04:20 1015 29.97 844 24.92 -22.2 -8 77 -25.3 -13.5
04:25 1015 29.97 844 24.92 -22 -7.5 75 -25.3 -13.5
04:30 1015 29.97 844 24.92 -22 -7.7 72 -25.8 -14.5
04:35 1015 29.97 844 24.92 -22.7 -8.9 73 -26.3 -15.4
04:40 1015 29.97 845 24.95 -23.1 -9.6 73 -26.7 -16.1
04:45 1015 29.97 845 24.95 -23.7 -10.6 75 -26.9 -16.4
04:50 1015 29.97 845 24.95 -23.4 -10.1 76 -26.5 -15.7
04:55 1015 29.97 845 24.95 -23.2 -9.7 75 -26.5 -15.6
05:00 1016 30 845 24.95 -22.9 -9.2 75 -26.1 -15
05:05 1016 30 845 24.95 -22.8 -9.1 77 -25.9 -14.6
05:10 1016 30 845 24.95 -22.6 -8.7 77 -25.7 -14.2
05:15 1016 30 845 24.95 -22.4 -8.4 75 -25.7 -14.3
05:20 1016 30 845 24.95 -22.3 -8.1 74 -25.7 -14.2
05:25 1016 30 845 24.95 -22.5 -8.4 73 -26.1 -14.9
05:30 1016 30 845 24.95 -22.8 -9.1 73 -26.5 -15.6
05:35 1016 30 845 24.95 -23.2 -9.7 74 -26.6 -15.8
05:40 1016 30 845 24.95 -23.3 -9.9 74 -26.7 -16
05:45 1016 30 845 24.95 -23.4 -10 75 -26.6 -15.9
05:50 1016 30 845 24.95 -23.2 -9.7 74 -26.5 -15.8
05:55 1016 30 845 24.95 -23.2 -9.7 74 -26.6 -15.8
06:00 1016 30 845 24.95 -23.1 -9.6 74 -26.6 -15.9
06:05 1016 30 845 24.95 -23 -9.5 73 -26.6 -15.9
06:10 1016 30 845 24.95 -23.1 -9.5 74 -26.6 -15.9
06:15 1016 30 845 24.95 -22.9 -9.2 74 -26.3 -15.4
06:20 1016 30 845 24.95 -22.7 -8.9 73 -26.4 -15.5
06:25 1016 30 845 24.95 -22.9 -9.3 73 -26.5 -15.7
06:30 1016 30 845 24.95 -23 -9.4 73 -26.6 -15.8
06:35 1016 30 845 24.95 -23.1 -9.5 73 -26.6 -15.9
06:40 1016 30 845 24.95 -23.1 -9.5 74 -26.6 -15.8
06:45 1016 30 845 24.95 -23 -9.3 73 -26.5 -15.7
06:50 1016 30 845 24.95 -22.8 -9 73 -26.4 -15.4
06:55 1016 30 845 24.95 -22.6 -8.6 73 -26.2 -15.2
07:00 1016 30 845 24.95 -22.3 -8.1 73 -26 -14.8
07:05 1016 30 845 24.95 -22 -7.7 72 -25.8 -14.5
07:10 1016 30 845 24.95 -21.7 -7 72 -25.4 -13.7
07:15 1016 30 845 24.95 -21.2 -6.1 70 -25.2 -13.4
07:20 1016 30 845 24.95 -20.8 -5.5 69 -25.1 -13.1
07:25 1016 30 845 24.95 -20.6 -5 67 -25.1 -13.2
07:30 1016 30 845 24.95 -20.4 -4.8 68 -25 -12.9
07:35 1016 30 845 24.95 -20.1 -4.3 67 -24.8 -12.7
07:40 1016 30 845 24.95 -19.9 -3.8 68 -24.4 -12
07:45 1016 30 846 24.98 -19.2 -2.6 66 -24 -11.2
07:50 1016 30 846 24.98 -18.5 -1.3 63 -23.9 -11
07:55 1016 30 846 24.98 -18.3 -1 63 -23.7 -10.6
08:00 1017 30.03 846 24.98 -18.3 -0.9 63 -23.6 -10.6
08:05 1017 30.03 846 24.98 -17.6 0.3 63 -23.1 -9.6
08:10 1017 30.03 846 24.98 -16.9 1.6 59 -23.1 -9.6
08:15 1017 30.03 846 24.98 -17.3 0.9 61 -23.1 -9.6
08:20 1017 30.03 846 24.98 -17 1.4 58 -23.4 -10.2
08:25 1017 30.03 846 24.98 -16.9 1.7 58 -23.4 -10.1
08:30 1017 30.03 846 24.98 -16.8 1.8 58 -23.3 -9.9
08:35 1017 30.03 846 24.98 -16.6 2.2 57 -23.3 -9.9
08:40 1017 30.03 846 24.98 -16.3 2.6 55 -23.4 -10.1
08:45 1017 30.03 846 24.98 -16.3 2.7 57 -23 -9.4
08:50 1017 30.03 846 24.98 -16.1 3.1 55 -23.1 -9.6
08:55 1017 30.03 846 24.98 -16.7 2 58 -23.1 -9.6
09:00 1017 30.03 846 24.98 -16.9 1.6 59 -23.1 -9.6
09:05 1017 30.03 846 24.98 -16.7 1.9 58 -23.2 -9.7
09:10 1017 30.03 846 24.98 -17 1.5 59 -23.1 -9.6
09:15 1017 30.03 846 24.98 -17.3 0.8 59 -23.6 -10.4
09:20 1017 30.03 846 24.98 -17.6 0.3 61 -23.4 -10.1
09:25 1017 30.03 846 24.98 -17.5 0.4 62 -23.1 -9.6
09:30 1017 30.03 846 24.98 -16.9 1.7 59 -23.1 -9.5
09:35 1017 30.03 846 24.98 -17.3 1 61 -23.1 -9.6
09:40 1017 30.03 846 24.98 -17.5 0.6 60 -23.5 -10.4
09:45 1017 30.03 846 24.98 -17.1 1.1 59 -23.4 -10.2
09:50 1017 30.03 846 24.98 -16.6 2.1 58 -23 -9.4
09:55 1017 30.03 846 24.98 -16.5 2.3 58 -23 -9.3
10:00 1017 30.03 846 24.98 -16.4 2.5 57 -23 -9.3
10:05 1017 30.03 846 24.98 -16.2 2.9 56 -23 -9.3
10:10 1017 30.03 846 24.98 -16.1 3.1 57 -22.8 -9.1
10:15 1017 30.03 846 24.98 -16.2 2.9 59 -22.5 -8.5
10:20 1017 30.03 846 24.98 -16 3.1 57 -22.7 -8.8
10:25 1017 30.03 846 24.98 -16 3.2 57 -22.8 -9
10:30 1017 30.03 846 24.98 -15.4 4.3 57 -22.2 -8
10:35 1017 30.03 846 24.98 -15.2 4.7 55 -22.4 -8.3
10:40 1017 30.03 846 24.98 -15.2 4.6 55 -22.3 -8.1
10:45 1017 30.03 846 24.98 -15.1 4.9 55 -22.2 -8
10:50 1017 30.03 846 24.98 -14.7 5.6 51 -22.6 -8.7
10:55 1017 30.03 846 24.98 -15.2 4.7 55 -22.3 -8.1
11:00 1017 30.03 846 24.98 -14.5 6 54 -21.9 -7.5
11:05 1017 30.03 846 24.98 -13.6 7.6 51 -21.7 -7
11:10 1017 30.03 846 24.98 -13.3 8 49 -22 -7.6
11:15 1017 30.03 846 24.98 -13.3 8.1 51 -21.4 -6.6
11:20 1017 30.03 846 24.98 -13.4 7.9 51 -21.5 -6.8
11:25 1017 30.03 846 24.98 -13.3 8.1 48 -22.1 -7.7
11:30 1017 30.03 846 24.98 -13.6 7.6 56 -20.7 -5.2
11:35 1017 30.03 846 24.98 -13.2 8.2 50 -21.6 -6.9
11:40 1017 30.03 846 24.98 -13 8.6 52 -20.9 -5.7
11:45 1017 30.03 846 24.98 -12.9 8.7 52 -20.9 -5.6
11:50 1017 30.03 846 24.98 -13 8.6 50 -21.3 -6.3
11:55 1017 30.03 846 24.98 -12.9 8.8 51 -21 -5.9
12:00 1017 30.03 846 24.98 -12.5 9.5 51 -20.8 -5.5
12:05 1017 30.03 846 24.98 -12.5 9.5 49 -21.2 -6.1
12:10 1017 30.03 846 24.98 -12.5 9.4 53 -20.3 -4.5
12:15 1017 30.03 846 24.98 -12.6 9.4 50 -21.1 -5.9
12:20 1017 30.03 846 24.98 -12.1 10.2 49 -20.7 -5.3
12:25 1017 30.03 846 24.98 -11.9 10.6 49 -20.5 -5
12:30 1017 30.03 846 24.98 -12.9 8.8 51 -21 -5.8
12:35 1017 30.03 846 24.98 -13.1 8.3 52 -21.1 -6
12:40 1017 30.03 846 24.98 -13 8.5 53 -20.7 -5.3
12:45 1017 30.03 846 24.98 -12.9 8.8 49 -21.5 -6.6
12:50 1017 30.03 846 24.98 -13.5 7.7 51 -21.7 -7.1
12:55 1017 30.03 846 24.98 -13.3 8.1 51 -21.4 -6.5
13:00 1017 30.03 846 24.98 -12.5 9.6 48 -21.3 -6.3
13:05 1017 30.03 846 24.98 -12.6 9.4 50 -20.9 -5.6
13:10 1017 30.03 846 24.98 -12.6 9.4 50 -21 -5.8
13:15 1017 30.03 846 24.98 -12.1 10.2 50 -20.6 -5.2
13:20 1017 30.03 846 24.98 -11.6 11.2 46 -21 -5.7
13:25 1017 30.03 846 24.98 -11.5 11.3 45 -21.2 -6.1
13:30 1017 30.03 846 24.98 -11.3 11.7 43 -21.7 -7
13:35 1017 30.03 846 24.98 -11.6 11.1 44 -21.6 -6.9
13:40 1017 30.03 846 24.98 -11.1 12.1 44 -21 -5.9
13:45 1017 30.03 846 24.98 -10.9 12.4 44 -20.8 -5.5
13:50 1017 30.03 846 24.98 -11 12.2 43 -21.3 -6.3
13:55 1017 30.03 846 24.98 -11 12.2 45 -20.9 -5.6
14:00 1017 30.03 846 24.98 -10.8 12.6 44 -20.9 -5.5
14:05 1017 30.03 846 24.98 -10.6 13 45 -20.4 -4.7
14:10 1017 30.03 846 24.98 -10.9 12.3 44 -20.9 -5.6
14:15 1017 30.03 846 24.98 -10.8 12.5 44 -20.8 -5.4
14:20 1017 30.03 846 24.98 -10.4 13.4 40 -21.5 -6.6
14:25 1017 30.03 846 24.98 -10.4 13.4 41 -21.3 -6.3
14:30 1017 30.03 846 24.98 -10.5 13 41 -21.4 -6.6
14:35 1017 30.03 846 24.98 -10.8 12.5 43 -21 -5.9
14:40 1017 30.03 846 24.98 -11 12.2 43 -21.4 -6.5
14:45 1017 30.03 846 24.98 -11.7 11 45 -21.3 -6.4
14:50 1017 30.03 846 24.98 -11.7 11 43 -21.8 -7.3
14:55 1017 30.03 846 24.98 -11.6 11.1 44 -21.5 -6.7
15:00 1017 30.03 846 24.98 -11.3 11.7 43 -21.5 -6.7
15:05 1017 30.03 846 24.98 -11.5 11.2 45 -21.3 -6.3
15:10 1017 30.03 846 24.98 -11.8 10.7 45 -21.5 -6.7
15:15 1017 30.03 846 24.98 -11.9 10.6 44 -21.8 -7.3
15:20 1017 30.03 846 24.98 -12.6 9.2 45 -22.4 -8.2
15:25 1017 30.03 846 24.98 -12.3 9.8 47 -21.6 -6.8
15:30 1017 30.03 846 24.98 -11.6 11.1 42 -22.3 -8.1
15:35 1017 30.03 846 24.98 -12.1 10.2 43 -22.3 -8.2
15:40 1017 30.03 846 24.98 -12.1 10.3 41 -22.7 -8.9
15:45 1017 30.03 846 24.98 -12.8 9 43 -22.9 -9.3
15:50 1017 30.03 846 24.98 -13.2 8.2 44 -23.1 -9.7
15:55 1017 30.03 846 24.98 -12.3 9.8 43 -22.5 -8.5
16:00 1017 30.03 846 24.98 -11.8 10.9 42 -22.3 -8.2
16:05 1017 30.03 846 24.98 -11.9 10.6 42 -22.3 -8.2
16:10 1017 30.03 846 24.98 -11.8 10.8 39 -23.1 -9.6
16:15 1017 30.03 846 24.98 -12.2 10 41 -23 -9.4
16:20 1017 30.03 846 24.98 -12.3 9.9 41 -23.1 -9.5
16:25 1017 30.03 846 24.98 -12 10.4 38 -23.8 -10.8
16:30 1017 30.03 846 24.98 -11.8 10.7 39 -23.3 -9.9
16:35 1017 30.03 846 24.98 -12.2 10 41 -23 -9.4
16:40 1017 30.03 846 24.98 -12.7 9.2 42 -23.1 -9.5
16:45 1017 30.03 846 24.98 -12.8 8.9 42 -23.2 -9.8
16:50 1017 30.03 846 24.98 -13.1 8.5 42 -23.5 -10.2
16:55 1017 30.03 846 24.98 -13.5 7.7 45 -23 -9.4
17:00 1017 30.03 846 24.98 -13.6 7.5 47 -22.8 -9
17:05 1017 30.03 846 24.98 -13.8 7.1 50 -22.1 -7.9
17:10 1017 30.03 846 24.98 -13.9 7 50 -22.2 -7.9
17:15 1017 30.03 846 24.98 -14.2 6.5 50 -22.4 -8.3
17:20 1017 30.03 846 24.98 -14.4 6.1 52 -22.3 -8.2
17:25 1017 30.03 846 24.98 -14.4 6 53 -22.1 -7.8
17:30 1017 30.03 846 24.98 -14.5 5.9 54 -21.9 -7.4
17:35 1017 30.03 847 25.01 -14.7 5.6 55 -21.9 -7.5
17:40 1017 30.03 847 25.01 -15 4.9 56 -21.9 -7.4
17:45 1017 30.03 847 25.01 -14.8 5.3 57 -21.6 -6.8
17:50 1017 30.03 847 25.01 -15.2 4.7 58 -21.6 -6.9
17:55 1018 30.06 847 25.01 -15.8 3.6 56 -22.6 -8.7
18:00 1018 30.06 847 25.01 -15.9 3.5 56 -22.7 -8.9
18:05 1018 30.06 847 25.01 -16.1 3 58 -22.6 -8.6
18:10 1018 30.06 847 25.01 -16.4 2.6 60 -22.5 -8.5
18:15 1018 30.06 847 25.01 -16.6 2.1 61 -22.5 -8.5
18:20 1018 30.06 847 25.01 -16.9 1.5 61 -22.7 -8.9
18:25 1018 30.06 847 25.01 -17.2 1.1 62 -22.9 -9.2
18:30 1018 30.06 847 25.01 -17.2 1.1 60 -23.1 -9.6
18:35 1018 30.06 847 25.01 -17 1.5 60 -23.1 -9.5
18:40 1018 30.06 847 25.01 -16.6 2.1 58 -23 -9.4
18:45 1018 30.06 847 25.01 -16.5 2.2 57 -23.1 -9.6
18:50 1018 30.06 847 25.01 -16.7 2 60 -22.8 -9
18:55 1018 30.06 847 25.01 -16.9 1.5 61 -22.7 -8.9
19:00 1018 30.06 847 25.01 -17.3 1 63 -22.8 -9
19:05 1018 30.06 847 25.01 -17.4 0.6 64 -22.8 -9
19:10 1018 30.06 847 25.01 -17.6 0.4 65 -22.7 -8.8
19:15 1018 30.06 847 25.01 -17.7 0.2 65 -22.7 -8.9
19:20 1018 30.06 847 25.01 -17.8 0 66 -22.7 -8.9
19:25 1018 30.06 847 25.01 -17.8 -0.1 66 -22.8 -9
19:30 1018 30.06 847 25.01 -17.9 -0.3 66 -22.9 -9.1
19:35 1018 30.06 847 25.01 -17.9 -0.2 66 -22.9 -9.2
19:40 1018 30.06 847 25.01 -17.8 0 65 -22.8 -9
19:45 1018 30.06 847 25.01 -17.8 -0.1 66 -22.7 -8.9
19:50 1018 30.06 847 25.01 -18.3 -0.9 68 -22.8 -9.1
19:55 1018 30.06 847 25.01 -18.3 -0.9 67 -22.9 -9.3
20:00 1018 30.06 847 25.01 -18 -0.4 67 -22.8 -9
20:05 1018 30.06 847 25.01 -18.3 -0.9 68 -22.8 -9
20:10 1018 30.06 847 25.01 -18.4 -1 71 -22.4 -8.4
20:15 1018 30.06 847 25.01 -18.6 -1.4 72 -22.5 -8.5
20:20 1018 30.06 847 25.01 -18.7 -1.7 72 -22.6 -8.6
20:25 1018 30.06 847 25.01 -18.2 -0.7 68 -22.7 -8.8
20:30 1018 30.06 847 25.01 -18 -0.4 67 -22.7 -8.8
20:35 1018 30.06 847 25.01 -18.2 -0.7 68 -22.7 -8.9
20:40 1018 30.06 847 25.01 -18 -0.4 67 -22.7 -8.9
20:45 1018 30.06 847 25.01 -17.8 -0.1 66 -22.7 -8.9
20:50 1018 30.06 847 25.01 -17.7 0.1 66 -22.7 -8.8
20:55 1018 30.06 848 25.04 -17.8 -0.1 66 -22.7 -8.9
21:00 1018 30.06 848 25.04 -17.9 -0.3 66 -22.8 -9.1
21:05 1018 30.06 847 25.01 -18.2 -0.7 67 -22.9 -9.3
21:10 1018 30.06 847 25.01 -19 -2.1 69 -23.2 -9.8
21:15 1018 30.06 848 25.04 -19 -2.2 71 -23.1 -9.5
21:20 1018 30.06 848 25.04 -18.7 -1.6 70 -22.9 -9.3
21:25 1018 30.06 848 25.04 -18.4 -1.1 69 -22.8 -9
21:30 1018 30.06 848 25.04 -18.2 -0.7 67 -22.8 -9.1
21:35 1018 30.06 847 25.01 -18.4 -1.1 68 -22.9 -9.2
21:40 1018 30.06 847 25.01 -18.5 -1.2 69 -22.9 -9.2
21:45 1018 30.06 847 25.01 -18.5 -1.3 68 -23 -9.4
21:50 1018 30.06 847 25.01 -18.9 -2 68 -23.3 -10
21:55 1018 30.06 847 25.01 -19.4 -2.9 70 -23.5 -10.3
22:00 1018 30.06 847 25.01 -19.7 -3.4 72 -23.5 -10.3
22:05 1018 30.06 847 25.01 -19.1 -2.4 72 -23 -9.4
22:10 1018 30.06 847 25.01 -18.2 -0.8 68 -22.7 -8.9
22:15 1018 30.06 847 25.01 -18.1 -0.6 68 -22.7 -8.8
22:20 1018 30.06 847 25.01 -18.1 -0.6 67 -22.8 -9
22:25 1018 30.06 847 25.01 -18.6 -1.4 68 -23.1 -9.5
22:30 1018 30.06 847 25.01 -19.2 -2.5 70 -23.4 -10.2
22:35 1018 30.06 847 25.01 -19.6 -3.3 72 -23.5 -10.3
22:40 1018 30.06 847 25.01 -19.8 -3.6 74 -23.3 -9.9
22:45 1018 30.06 847 25.01 -19.7 -3.4 75 -23 -9.5
22:50 1018 30.06 847 25.01 -19.1 -2.4 75 -22.5 -8.5
22:55 1018 30.06 847 25.01 -18.6 -1.5 74 -22.2 -7.9
23:00 1018 30.06 847 25.01 -18.1 -0.6 75 -21.6 -6.8
23:05 1018 30.06 847 25.01 -18.1 -0.6 69 -22.5 -8.5
23:10 1018 30.06 847 25.01 -18.2 -0.8 69 -22.6 -8.8
23:15 1018 30.06 847 25.01 -18.4 -1.2 71 -22.5 -8.5
23:20 1018 30.06 847 25.01 -18.3 -0.9 71 -22.4 -8.2
23:25 1018 30.06 847 25.01 -17.9 -0.2 71 -21.9 -7.4
23:30 1018 30.06 847 25.01 -18.1 -0.5 71 -22.1 -7.8
23:35 1018 30.06 847 25.01 -18.2 -0.7 71 -22.1 -7.8
23:40 1018 30.06 848 25.04 -18.2 -0.7 69 -22.5 -8.5
23:45 1018 30.06 848 25.04 -18.2 -0.8 69 -22.6 -8.7
23:50 1018 30.06 848 25.04 -18.2 -0.8 69 -22.6 -8.7
23:55 1018 30.06 848 25.04 -18.2 -0.8 70 -22.5 -8.5
24:00 1018 30.06 847 25.01 -18.2 -0.7 69 -22.6 -8.7